Orlando, Florida
Traffic Map
Current Weather Conditions
Orlando, Florida
Clear
Clear
18°
Feels Like: 18°
Wind Chill: 18° Ceiling: Unl
Heat Index: 18° Visibility: 10mi
Dew Point: 15° Wind: 5mph
Humidity: 81% Direction: 300° (WNW)
Pressure: 30.11in Gusts: 0mph
Raw Report DataKORL 080353Z AUTO 30004KT 10SM CLR 18/15 A3011 RMK AO2 SLP201 T01830150
Traffic Incident Summary
Active as of:
Severity:
Category:
InformationThere was an issue retrieving the traffic information for this location. Please try a different location or try again shortly.
Advertisements
Track Severe Weather on mobile